sensor_id;sensor_type;location;lat;lon;timestamp;temperature;humidity
31991;DHT22;18508;49.386;8.370;2022-11-21T00:00:29;7.00;99.90
31991;DHT22;18508;49.386;8.370;2022-11-21T00:03:00;6.70;99.90
31991;DHT22;18508;49.386;8.370;2022-11-21T00:05:30;6.90;99.90
31991;DHT22;18508;49.386;8.370;2022-11-21T00:10:31;6.80;99.90
31991;DHT22;18508;49.386;8.370;2022-11-21T00:12:59;6.70;99.90
31991;DHT22;18508;49.386;8.370;2022-11-21T00:15:28;6.70;99.90
31991;DHT22;18508;49.386;8.370;2022-11-21T00:17:57;6.80;99.90
31991;DHT22;18508;49.386;8.370;2022-11-21T00:20:25;6.50;99.90
31991;DHT22;18508;49.386;8.370;2022-11-21T00:22:54;6.50;99.90
31991;DHT22;18508;49.386;8.370;2022-11-21T00:25:23;6.30;99.90
31991;DHT22;18508;49.386;8.370;2022-11-21T00:27:56;6.50;99.90
31991;DHT22;18508;49.386;8.370;2022-11-21T00:30:24;5.70;99.90
31991;DHT22;18508;49.386;8.370;2022-11-21T00:32:53;6.20;99.90
31991;DHT22;18508;49.386;8.370;2022-11-21T00:35:23;6.40;99.90
31991;DHT22;18508;49.386;8.370;2022-11-21T00:37:54;6.40;99.90
31991;DHT22;18508;49.386;8.370;2022-11-21T00:40:23;6.20;99.90
31991;DHT22;18508;49.386;8.370;2022-11-21T00:42:54;6.70;99.90
31991;DHT22;18508;49.386;8.370;2022-11-21T00:52:54;6.50;99.90
31991;DHT22;18508;49.386;8.370;2022-11-21T00:55:24;6.10;99.90
31991;DHT22;18508;49.386;8.370;2022-11-21T00:57:53;6.20;99.90
31991;DHT22;18508;49.386;8.370;2022-11-21T01:00:22;6.10;99.90
31991;DHT22;18508;49.386;8.370;2022-11-21T01:02:51;6.20;99.90
31991;DHT22;18508;49.386;8.370;2022-11-21T01:05:23;6.50;99.90
31991;DHT22;18508;49.386;8.370;2022-11-21T01:07:51;6.40;99.90
31991;DHT22;18508;49.386;8.370;2022-11-21T01:12:50;6.50;99.90
31991;DHT22;18508;49.386;8.370;2022-11-21T01:15:21;6.50;99.90
31991;DHT22;18508;49.386;8.370;2022-11-21T01:17:50;6.60;99.90
31991;DHT22;18508;49.386;8.370;2022-11-21T01:20:20;6.50;99.90
31991;DHT22;18508;49.386;8.370;2022-11-21T01:22:48;6.60;99.90
31991;DHT22;18508;49.386;8.370;2022-11-21T01:25:17;6.80;99.90
31991;DHT22;18508;49.386;8.370;2022-11-21T01:27:46;6.80;99.90
31991;DHT22;18508;49.386;8.370;2022-11-21T01:30:16;6.90;99.90
31991;DHT22;18508;49.386;8.370;2022-11-21T01:32:48;6.60;99.90
31991;DHT22;18508;49.386;8.370;2022-11-21T01:35:18;7.00;99.90
31991;DHT22;18508;49.386;8.370;2022-11-21T01:37:47;6.80;99.90
31991;DHT22;18508;49.386;8.370;2022-11-21T01:40:16;6.90;99.90
31991;DHT22;18508;49.386;8.370;2022-11-21T01:42:58;6.80;99.90
31991;DHT22;18508;49.386;8.370;2022-11-21T01:45:53;6.80;99.90
31991;DHT22;18508;49.386;8.370;2022-11-21T01:48:29;6.70;99.90
31991;DHT22;18508;49.386;8.370;2022-11-21T01:51:08;6.70;99.90
31991;DHT22;18508;49.386;8.370;2022-11-21T01:53:40;6.60;99.90
31991;DHT22;18508;49.386;8.370;2022-11-21T01:56:09;6.60;99.90
31991;DHT22;18508;49.386;8.370;2022-11-21T01:58:40;6.40;99.90
31991;DHT22;18508;49.386;8.370;2022-11-21T02:01:11;6.40;99.90
31991;DHT22;18508;49.386;8.370;2022-11-21T02:03:43;6.40;99.90
31991;DHT22;18508;49.386;8.370;2022-11-21T02:06:14;6.40;99.90
31991;DHT22;18508;49.386;8.370;2022-11-21T02:08:44;6.30;99.90
31991;DHT22;18508;49.386;8.370;2022-11-21T02:11:22;6.30;99.90
31991;DHT22;18508;49.386;8.370;2022-11-21T02:13:55;6.20;99.90
31991;DHT22;18508;49.386;8.370;2022-11-21T02:16:24;6.20;99.90
31991;DHT22;18508;49.386;8.370;2022-11-21T02:18:55;6.00;99.90
31991;DHT22;18508;49.386;8.370;2022-11-21T02:21:34;6.10;99.90
31991;DHT22;18508;49.386;8.370;2022-11-21T02:24:08;6.20;99.90
31991;DHT22;18508;49.386;8.370;2022-11-21T02:26:44;6.50;99.90
31991;DHT22;18508;49.386;8.370;2022-11-21T02:29:15;6.10;99.90
31991;DHT22;18508;49.386;8.370;2022-11-21T02:31:44;6.20;99.90
31991;DHT22;18508;49.386;8.370;2022-11-21T02:34:13;6.20;99.90
31991;DHT22;18508;49.386;8.370;2022-11-21T02:36:45;6.30;99.90
31991;DHT22;18508;49.386;8.370;2022-11-21T02:39:18;6.40;99.90
31991;DHT22;18508;49.386;8.370;2022-11-21T02:41:58;6.60;99.90
31991;DHT22;18508;49.386;8.370;2022-11-21T02:44:39;6.60;99.90
31991;DHT22;18508;49.386;8.370;2022-11-21T02:47:10;7.30;99.90
31991;DHT22;18508;49.386;8.370;2022-11-21T02:49:43;6.80;99.90
31991;DHT22;18508;49.386;8.370;2022-11-21T02:52:12;6.90;99.90
31991;DHT22;18508;49.386;8.370;2022-11-21T02:54:41;6.90;99.90
31991;DHT22;18508;49.386;8.370;2022-11-21T02:57:11;7.50;99.90
31991;DHT22;18508;49.386;8.370;2022-11-21T02:59:39;8.90;99.90
31991;DHT22;18508;49.386;8.370;2022-11-21T03:02:08;7.00;99.90
31991;DHT22;18508;49.386;8.370;2022-11-21T03:07:05;7.00;99.90
31991;DHT22;18508;49.386;8.370;2022-11-21T03:09:34;7.00;99.90
31991;DHT22;18508;49.386;8.370;2022-11-21T03:12:05;7.10;99.90
31991;DHT22;18508;49.386;8.370;2022-11-21T03:14:35;7.10;99.90
31991;DHT22;18508;49.386;8.370;2022-11-21T03:17:04;7.00;99.90
31991;DHT22;18508;49.386;8.370;2022-11-21T03:19:33;7.10;99.90
31991;DHT22;18508;49.386;8.370;2022-11-21T03:22:02;7.10;99.90
31991;DHT22;18508;49.386;8.370;2022-11-21T03:24:31;7.10;99.90
31991;DHT22;18508;49.386;8.370;2022-11-21T03:29:30;7.00;99.90
31991;DHT22;18508;49.386;8.370;2022-11-21T03:32:00;7.10;99.90
31991;DHT22;18508;49.386;8.370;2022-11-21T03:34:28;6.70;99.90
31991;DHT22;18508;49.386;8.370;2022-11-21T03:36:57;7.00;99.90
31991;DHT22;18508;49.386;8.370;2022-11-21T03:39:25;7.00;99.90
31991;DHT22;18508;49.386;8.370;2022-11-21T03:41:54;6.90;99.90
31991;DHT22;18508;49.386;8.370;2022-11-21T03:44:23;6.70;99.90
31991;DHT22;18508;49.386;8.370;2022-11-21T03:46:53;6.60;99.90
31991;DHT22;18508;49.386;8.370;2022-11-21T03:49:22;7.40;99.90
31991;DHT22;18508;49.386;8.370;2022-11-21T03:51:51;6.80;99.90
31991;DHT22;18508;49.386;8.370;2022-11-21T03:54:19;6.80;99.90
31991;DHT22;18508;49.386;8.370;2022-11-21T03:56:48;6.80;99.90
31991;DHT22;18508;49.386;8.370;2022-11-21T03:59:16;6.90;99.90
31991;DHT22;18508;49.386;8.370;2022-11-21T04:04:13;6.60;99.90
31991;DHT22;18508;49.386;8.370;2022-11-21T04:06:47;6.80;99.90
31991;DHT22;18508;49.386;8.370;2022-11-21T04:09:16;6.70;99.90
31991;DHT22;18508;49.386;8.370;2022-11-21T04:11:45;6.50;99.90
31991;DHT22;18508;49.386;8.370;2022-11-21T04:14:13;6.90;99.90
31991;DHT22;18508;49.386;8.370;2022-11-21T04:16:43;6.90;99.90
31991;DHT22;18508;49.386;8.370;2022-11-21T04:19:13;6.90;99.90
31991;DHT22;18508;49.386;8.370;2022-11-21T04:21:43;7.00;99.90
31991;DHT22;18508;49.386;8.370;2022-11-21T04:24:12;7.10;99.90
31991;DHT22;18508;49.386;8.370;2022-11-21T04:29:12;7.20;99.90
31991;DHT22;18508;49.386;8.370;2022-11-21T04:31:41;7.10;99.90
31991;DHT22;18508;49.386;8.370;2022-11-21T04:34:10;7.20;99.90
31991;DHT22;18508;49.386;8.370;2022-11-21T04:36:38;7.20;99.90
31991;DHT22;18508;49.386;8.370;2022-11-21T04:39:08;7.20;99.90
31991;DHT22;18508;49.386;8.370;2022-11-21T04:41:37;7.50;99.90
31991;DHT22;18508;49.386;8.370;2022-11-21T04:44:06;7.20;99.90
31991;DHT22;18508;49.386;8.370;2022-11-21T04:46:34;7.30;99.90
31991;DHT22;18508;49.386;8.370;2022-11-21T04:49:03;7.30;99.90
31991;DHT22;18508;49.386;8.370;2022-11-21T04:51:31;7.20;99.90
31991;DHT22;18508;49.386;8.370;2022-11-21T04:54:00;7.20;99.90
31991;DHT22;18508;49.386;8.370;2022-11-21T04:56:30;7.20;99.90
31991;DHT22;18508;49.386;8.370;2022-11-21T04:58:59;7.30;99.90
31991;DHT22;18508;49.386;8.370;2022-11-21T05:01:27;7.20;99.90
31991;DHT22;18508;49.386;8.370;2022-11-21T05:03:56;7.30;99.90
31991;DHT22;18508;49.386;8.370;2022-11-21T05:06:25;7.20;99.90
31991;DHT22;18508;49.386;8.370;2022-11-21T05:08:53;7.20;99.90
31991;DHT22;18508;49.386;8.370;2022-11-21T05:11:24;7.20;99.90
31991;DHT22;18508;49.386;8.370;2022-11-21T05:14:13;7.20;99.90
31991;DHT22;18508;49.386;8.370;2022-11-21T05:16:42;7.10;99.90
31991;DHT22;18508;49.386;8.370;2022-11-21T05:19:10;7.00;99.90
31991;DHT22;18508;49.386;8.370;2022-11-21T05:21:39;7.00;99.90
31991;DHT22;18508;49.386;8.370;2022-11-21T05:24:07;6.90;99.90
31991;DHT22;18508;49.386;8.370;2022-11-21T05:26:36;7.00;99.90
31991;DHT22;18508;49.386;8.370;2022-11-21T05:29:20;6.60;99.90
31991;DHT22;18508;49.386;8.370;2022-11-21T05:31:54;6.80;99.90
31991;DHT22;18508;49.386;8.370;2022-11-21T05:34:23;7.10;99.90
31991;DHT22;18508;49.386;8.370;2022-11-21T05:36:55;7.00;99.90
31991;DHT22;18508;49.386;8.370;2022-11-21T05:41:55;7.10;99.90
31991;DHT22;18508;49.386;8.370;2022-11-21T05:44:30;7.10;99.90
31991;DHT22;18508;49.386;8.370;2022-11-21T05:46:57;7.50;99.90
31991;DHT22;18508;49.386;8.370;2022-11-21T05:49:27;7.10;99.90
31991;DHT22;18508;49.386;8.370;2022-11-21T05:51:56;7.10;99.90
31991;DHT22;18508;49.386;8.370;2022-11-21T05:54:25;7.20;99.90
31991;DHT22;18508;49.386;8.370;2022-11-21T05:56:55;6.60;99.90
31991;DHT22;18508;49.386;8.370;2022-11-21T05:59:25;7.00;99.90
31991;DHT22;18508;49.386;8.370;2022-11-21T06:01:56;7.10;99.90
31991;DHT22;18508;49.386;8.370;2022-11-21T06:04:44;7.10;99.90
31991;DHT22;18508;49.386;8.370;2022-11-21T06:07:13;7.10;99.90
31991;DHT22;18508;49.386;8.370;2022-11-21T06:12:15;7.10;99.90
31991;DHT22;18508;49.386;8.370;2022-11-21T06:14:53;7.40;99.90
31991;DHT22;18508;49.386;8.370;2022-11-21T06:17:28;7.10;99.90
31991;DHT22;18508;49.386;8.370;2022-11-21T06:19:59;6.70;99.90
31991;DHT22;18508;49.386;8.370;2022-11-21T06:22:28;7.10;99.90
31991;DHT22;18508;49.386;8.370;2022-11-21T06:24:58;7.00;99.90
31991;DHT22;18508;49.386;8.370;2022-11-21T06:27:31;7.00;99.90
31991;DHT22;18508;49.386;8.370;2022-11-21T06:30:04;7.10;99.90
31991;DHT22;18508;49.386;8.370;2022-11-21T06:32:38;7.00;99.90
31991;DHT22;18508;49.386;8.370;2022-11-21T06:35:22;6.90;99.90
31991;DHT22;18508;49.386;8.370;2022-11-21T06:37:56;7.00;99.90
31991;DHT22;18508;49.386;8.370;2022-11-21T06:40:29;7.10;99.90
31991;DHT22;18508;49.386;8.370;2022-11-21T06:43:00;7.00;99.90
31991;DHT22;18508;49.386;8.370;2022-11-21T06:45:34;6.90;99.90
31991;DHT22;18508;49.386;8.370;2022-11-21T06:48:10;7.00;99.90
31991;DHT22;18508;49.386;8.370;2022-11-21T06:50:42;7.00;99.90
31991;DHT22;18508;49.386;8.370;2022-11-21T06:53:15;6.90;99.90
31991;DHT22;18508;49.386;8.370;2022-11-21T06:55:51;6.90;99.90
31991;DHT22;18508;49.386;8.370;2022-11-21T06:58:20;7.00;99.90
31991;DHT22;18508;49.386;8.370;2022-11-21T07:00:56;6.90;99.90
31991;DHT22;18508;49.386;8.370;2022-11-21T07:03:36;6.90;99.90
31991;DHT22;18508;49.386;8.370;2022-11-21T07:06:28;6.80;99.90
31991;DHT22;18508;49.386;8.370;2022-11-21T07:09:07;6.90;99.90
31991;DHT22;18508;49.386;8.370;2022-11-21T07:12:01;7.00;99.90
31991;DHT22;18508;49.386;8.370;2022-11-21T07:14:53;7.10;99.90
31991;DHT22;18508;49.386;8.370;2022-11-21T07:19:57;7.10;99.90
31991;DHT22;18508;49.386;8.370;2022-11-21T07:30:07;7.20;99.90
31991;DHT22;18508;49.386;8.370;2022-11-21T07:40:15;7.20;99.90
31991;DHT22;18508;49.386;8.370;2022-11-21T07:43:03;7.20;99.90
31991;DHT22;18508;49.386;8.370;2022-11-21T07:58:16;7.30;99.90
31991;DHT22;18508;49.386;8.370;2022-11-21T08:03:28;7.20;99.90
31991;DHT22;18508;49.386;8.370;2022-11-21T08:06:05;7.20;99.90
31991;DHT22;18508;49.386;8.370;2022-11-21T08:11:04;7.10;99.90
31991;DHT22;18508;49.386;8.370;2022-11-21T08:13:39;7.30;99.90
31991;DHT22;18508;49.386;8.370;2022-11-21T08:21:15;6.80;99.90
31991;DHT22;18508;49.386;8.370;2022-11-21T08:23:46;7.60;99.90
31991;DHT22;18508;49.386;8.370;2022-11-21T08:26:24;6.70;99.90
31991;DHT22;18508;49.386;8.370;2022-11-21T08:31:27;7.80;99.90
31991;DHT22;18508;49.386;8.370;2022-11-21T08:34:00;7.70;99.90
31991;DHT22;18508;49.386;8.370;2022-11-21T08:36:31;7.80;99.90
31991;DHT22;18508;49.386;8.370;2022-11-21T08:39:07;7.90;99.90
31991;DHT22;18508;49.386;8.370;2022-11-21T08:41:41;8.10;99.90
31991;DHT22;18508;49.386;8.370;2022-11-21T08:44:28;8.10;99.90
31991;DHT22;18508;49.386;8.370;2022-11-21T08:47:08;8.10;99.90
31991;DHT22;18508;49.386;8.370;2022-11-21T08:49:52;8.10;99.90
31991;DHT22;18508;49.386;8.370;2022-11-21T08:52:25;8.20;99.90
31991;DHT22;18508;49.386;8.370;2022-11-21T08:54:59;8.10;99.90
31991;DHT22;18508;49.386;8.370;2022-11-21T08:57:29;8.10;99.90
31991;DHT22;18508;49.386;8.370;2022-11-21T09:00:02;8.20;99.90
31991;DHT22;18508;49.386;8.370;2022-11-21T09:02:39;8.20;99.90
31991;DHT22;18508;49.386;8.370;2022-11-21T09:05:16;8.20;99.90
31991;DHT22;18508;49.386;8.370;2022-11-21T09:07:55;8.30;95.90
31991;DHT22;18508;49.386;8.370;2022-11-21T09:10:28;8.30;99.90
31991;DHT22;18508;49.386;8.370;2022-11-21T09:15:30;8.50;99.90
31991;DHT22;18508;49.386;8.370;2022-11-21T09:18:20;8.90;99.90
31991;DHT22;18508;49.386;8.370;2022-11-21T09:20:52;8.70;99.90
31991;DHT22;18508;49.386;8.370;2022-11-21T09:23:27;8.80;99.90
31991;DHT22;18508;49.386;8.370;2022-11-21T09:25:58;8.90;99.90
31991;DHT22;18508;49.386;8.370;2022-11-21T09:30:58;9.30;99.90
31991;DHT22;18508;49.386;8.370;2022-11-21T09:33:37;9.40;99.90
31991;DHT22;18508;49.386;8.370;2022-11-21T09:36:06;9.80;99.90
31991;DHT22;18508;49.386;8.370;2022-11-21T09:38:37;10.00;99.90
31991;DHT22;18508;49.386;8.370;2022-11-21T09:41:17;9.90;99.90
31991;DHT22;18508;49.386;8.370;2022-11-21T09:44:15;9.80;99.90
31991;DHT22;18508;49.386;8.370;2022-11-21T09:46:58;9.70;99.90
31991;DHT22;18508;49.386;8.370;2022-11-21T09:49:42;9.80;99.90
31991;DHT22;18508;49.386;8.370;2022-11-21T09:52:19;10.20;99.90
31991;DHT22;18508;49.386;8.370;2022-11-21T09:54:55;10.40;99.90
31991;DHT22;18508;49.386;8.370;2022-11-21T09:57:36;10.60;99.90
31991;DHT22;18508;49.386;8.370;2022-11-21T10:00:15;10.40;99.90
31991;DHT22;18508;49.386;8.370;2022-11-21T10:02:49;10.60;99.90
31991;DHT22;18508;49.386;8.370;2022-11-21T10:05:31;10.60;99.90
31991;DHT22;18508;49.386;8.370;2022-11-21T10:08:21;10.70;99.90
31991;DHT22;18508;49.386;8.370;2022-11-21T10:11:14;10.70;99.90
31991;DHT22;18508;49.386;8.370;2022-11-21T10:13:59;10.50;99.90
31991;DHT22;18508;49.386;8.370;2022-11-21T10:16:41;10.60;99.90
31991;DHT22;18508;49.386;8.370;2022-11-21T10:19:50;10.70;99.90
31991;DHT22;18508;49.386;8.370;2022-11-21T10:22:38;10.60;98.50
31991;DHT22;18508;49.386;8.370;2022-11-21T10:25:22;10.60;99.90
31991;DHT22;18508;49.386;8.370;2022-11-21T10:27:58;10.70;99.90
31991;DHT22;18508;49.386;8.370;2022-11-21T10:33:01;10.90;99.90
31991;DHT22;18508;49.386;8.370;2022-11-21T10:35:37;11.10;99.90
31991;DHT22;18508;49.386;8.370;2022-11-21T10:38:17;10.90;99.90
31991;DHT22;18508;49.386;8.370;2022-11-21T10:40:59;10.90;99.90
31991;DHT22;18508;49.386;8.370;2022-11-21T10:43:34;11.10;99.90
31991;DHT22;18508;49.386;8.370;2022-11-21T10:49:00;11.00;98.20
31991;DHT22;18508;49.386;8.370;2022-11-21T10:51:42;11.10;99.90
31991;DHT22;18508;49.386;8.370;2022-11-21T10:54:16;11.10;99.90
31991;DHT22;18508;49.386;8.370;2022-11-21T10:57:19;11.10;99.90
31991;DHT22;18508;49.386;8.370;2022-11-21T11:00:15;11.10;99.90
31991;DHT22;18508;49.386;8.370;2022-11-21T11:03:04;11.10;99.90
31991;DHT22;18508;49.386;8.370;2022-11-21T11:05:36;11.10;99.90
31991;DHT22;18508;49.386;8.370;2022-11-21T11:08:10;11.00;99.90
31991;DHT22;18508;49.386;8.370;2022-11-21T11:10:41;11.10;99.90
31991;DHT22;18508;49.386;8.370;2022-11-21T11:13:15;11.00;99.90
31991;DHT22;18508;49.386;8.370;2022-11-21T11:16:21;10.80;99.90
31991;DHT22;18508;49.386;8.370;2022-11-21T11:19:02;10.50;99.90
31991;DHT22;18508;49.386;8.370;2022-11-21T11:21:42;10.70;99.90
31991;DHT22;18508;49.386;8.370;2022-11-21T11:24:25;10.70;99.90
31991;DHT22;18508;49.386;8.370;2022-11-21T11:26:59;10.90;99.90
31991;DHT22;18508;49.386;8.370;2022-11-21T11:29:31;11.00;99.90
31991;DHT22;18508;49.386;8.370;2022-11-21T11:32:14;11.30;98.10
31991;DHT22;18508;49.386;8.370;2022-11-21T11:34:56;11.00;99.90
31991;DHT22;18508;49.386;8.370;2022-11-21T11:37:34;11.80;94.20
31991;DHT22;18508;49.386;8.370;2022-11-21T11:40:18;11.90;96.80
31991;DHT22;18508;49.386;8.370;2022-11-21T11:43:02;11.90;95.60
31991;DHT22;18508;49.386;8.370;2022-11-21T11:46:05;11.90;99.90
31991;DHT22;18508;49.386;8.370;2022-11-21T11:49:04;12.90;99.90
31991;DHT22;18508;49.386;8.370;2022-11-21T11:51:50;12.20;99.90
31991;DHT22;18508;49.386;8.370;2022-11-21T11:54:33;12.30;99.90
31991;DHT22;18508;49.386;8.370;2022-11-21T11:57:07;12.00;99.90
31991;DHT22;18508;49.386;8.370;2022-11-21T11:59:45;12.00;99.90
31991;DHT22;18508;49.386;8.370;2022-11-21T12:02:28;12.20;99.90
31991;DHT22;18508;49.386;8.370;2022-11-21T12:05:14;12.20;99.90
31991;DHT22;18508;49.386;8.370;2022-11-21T12:08:02;13.50;99.90
31991;DHT22;18508;49.386;8.370;2022-11-21T12:10:58;12.40;99.90
31991;DHT22;18508;49.386;8.370;2022-11-21T12:14:04;14.40;99.90
31991;DHT22;18508;49.386;8.370;2022-11-21T12:19:15;12.40;99.90
31991;DHT22;18508;49.386;8.370;2022-11-21T12:21:48;12.20;99.90
31991;DHT22;18508;49.386;8.370;2022-11-21T12:26:56;12.20;99.90
31991;DHT22;18508;49.386;8.370;2022-11-21T12:29:51;12.30;99.90
31991;DHT22;18508;49.386;8.370;2022-11-21T12:32:44;12.20;99.90
31991;DHT22;18508;49.386;8.370;2022-11-21T12:35:32;12.50;99.90
31991;DHT22;18508;49.386;8.370;2022-11-21T12:38:20;12.30;99.90
31991;DHT22;18508;49.386;8.370;2022-11-21T12:41:00;12.30;99.90
31991;DHT22;18508;49.386;8.370;2022-11-21T12:44:12;11.90;99.90
31991;DHT22;18508;49.386;8.370;2022-11-21T12:46:51;12.30;99.90
31991;DHT22;18508;49.386;8.370;2022-11-21T12:49:31;12.00;99.90
31991;DHT22;18508;49.386;8.370;2022-11-21T12:52:33;12.10;99.90
31991;DHT22;18508;49.386;8.370;2022-11-21T12:55:31;12.40;99.90
31991;DHT22;18508;49.386;8.370;2022-11-21T12:58:22;12.10;99.90
31991;DHT22;18508;49.386;8.370;2022-11-21T13:01:12;12.10;99.90
31991;DHT22;18508;49.386;8.370;2022-11-21T13:03:54;12.40;99.90
31991;DHT22;18508;49.386;8.370;2022-11-21T13:06:32;11.70;96.40
31991;DHT22;18508;49.386;8.370;2022-11-21T13:09:41;9.40;93.30
31991;DHT22;18508;49.386;8.370;2022-11-21T13:12:34;11.90;93.90
31991;DHT22;18508;49.386;8.370;2022-11-21T13:15:20;11.80;95.80
31991;DHT22;18508;49.386;8.370;2022-11-21T13:18:04;11.90;91.40
31991;DHT22;18508;49.386;8.370;2022-11-21T13:20:47;11.90;96.00
31991;DHT22;18508;49.386;8.370;2022-11-21T13:23:36;11.90;99.90
31991;DHT22;18508;49.386;8.370;2022-11-21T13:29:39;11.70;97.10
31991;DHT22;18508;49.386;8.370;2022-11-21T13:32:38;11.80;92.00
31991;DHT22;18508;49.386;8.370;2022-11-21T13:38:21;11.60;99.90
31991;DHT22;18508;49.386;8.370;2022-11-21T13:47:01;11.30;99.90
31991;DHT22;18508;49.386;8.370;2022-11-21T13:49:42;12.30;99.90
31991;DHT22;18508;49.386;8.370;2022-11-21T13:52:23;10.90;99.90
31991;DHT22;18508;49.386;8.370;2022-11-21T13:58:11;10.60;99.90
31991;DHT22;18508;49.386;8.370;2022-11-21T14:01:02;10.60;99.90
31991;DHT22;18508;49.386;8.370;2022-11-21T14:03:58;10.30;99.90
31991;DHT22;18508;49.386;8.370;2022-11-21T14:06:35;10.10;99.90
31991;DHT22;18508;49.386;8.370;2022-11-21T14:09:25;10.10;99.90
31991;DHT22;18508;49.386;8.370;2022-11-21T14:12:21;10.10;99.90
31991;DHT22;18508;49.386;8.370;2022-11-21T14:17:53;10.00;99.90
31991;DHT22;18508;49.386;8.370;2022-11-21T14:20:47;9.90;99.90
31991;DHT22;18508;49.386;8.370;2022-11-21T14:23:24;9.90;99.90
31991;DHT22;18508;49.386;8.370;2022-11-21T14:26:03;9.90;99.90
31991;DHT22;18508;49.386;8.370;2022-11-21T14:28:39;9.90;99.90
31991;DHT22;18508;49.386;8.370;2022-11-21T14:31:17;9.80;99.90
31991;DHT22;18508;49.386;8.370;2022-11-21T14:33:57;9.90;99.90
31991;DHT22;18508;49.386;8.370;2022-11-21T14:36:42;9.80;99.90
31991;DHT22;18508;49.386;8.370;2022-11-21T14:39:27;9.90;99.90
31991;DHT22;18508;49.386;8.370;2022-11-21T14:42:34;9.80;99.90
31991;DHT22;18508;49.386;8.370;2022-11-21T14:48:00;9.80;99.90
31991;DHT22;18508;49.386;8.370;2022-11-21T14:50:42;9.90;99.90
31991;DHT22;18508;49.386;8.370;2022-11-21T14:53:29;9.80;99.90
31991;DHT22;18508;49.386;8.370;2022-11-21T14:56:22;9.80;99.90
31991;DHT22;18508;49.386;8.370;2022-11-21T14:59:02;8.50;99.90
31991;DHT22;18508;49.386;8.370;2022-11-21T15:01:37;10.30;99.90
31991;DHT22;18508;49.386;8.370;2022-11-21T15:04:17;9.60;99.90
31991;DHT22;18508;49.386;8.370;2022-11-21T15:07:16;9.60;99.90
31991;DHT22;18508;49.386;8.370;2022-11-21T15:10:03;9.50;99.90
31991;DHT22;18508;49.386;8.370;2022-11-21T15:13:09;9.40;99.90
31991;DHT22;18508;49.386;8.370;2022-11-21T15:15:49;10.40;99.90
31991;DHT22;18508;49.386;8.370;2022-11-21T15:21:15;13.50;99.90
31991;DHT22;18508;49.386;8.370;2022-11-21T15:23:55;9.10;99.90
31991;DHT22;18508;49.386;8.370;2022-11-21T15:26:38;9.00;99.90
31991;DHT22;18508;49.386;8.370;2022-11-21T15:29:20;8.90;99.90
31991;DHT22;18508;49.386;8.370;2022-11-21T15:32:07;8.90;99.90
31991;DHT22;18508;49.386;8.370;2022-11-21T15:34:44;8.80;99.90
31991;DHT22;18508;49.386;8.370;2022-11-21T15:37:19;8.70;99.90
31991;DHT22;18508;49.386;8.370;2022-11-21T15:40:15;8.60;99.90
31991;DHT22;18508;49.386;8.370;2022-11-21T15:42:57;8.70;99.90
31991;DHT22;18508;49.386;8.370;2022-11-21T15:45:31;8.40;99.90
31991;DHT22;18508;49.386;8.370;2022-11-21T15:56:15;8.10;99.90
31991;DHT22;18508;49.386;8.370;2022-11-21T15:58:58;8.10;99.90
31991;DHT22;18508;49.386;8.370;2022-11-21T16:04:16;8.00;99.90
31991;DHT22;18508;49.386;8.370;2022-11-21T16:07:16;8.00;99.90
31991;DHT22;18508;49.386;8.370;2022-11-21T16:15:32;7.60;99.90
31991;DHT22;18508;49.386;8.370;2022-11-21T16:20:41;7.50;99.90
31991;DHT22;18508;49.386;8.370;2022-11-21T16:25:51;7.40;99.90
31991;DHT22;18508;49.386;8.370;2022-11-21T16:41:20;7.30;99.90
31991;DHT22;18508;49.386;8.370;2022-11-21T16:43:54;7.20;99.90
31991;DHT22;18508;49.386;8.370;2022-11-21T16:49:03;7.10;99.90
31991;DHT22;18508;49.386;8.370;2022-11-21T16:56:45;7.10;99.90
31991;DHT22;18508;49.386;8.370;2022-11-21T17:14:37;6.90;99.90
31991;DHT22;18508;49.386;8.370;2022-11-21T17:22:09;7.00;99.90
31991;DHT22;18508;49.386;8.370;2022-11-21T17:24:41;7.00;99.90
31991;DHT22;18508;49.386;8.370;2022-11-21T17:47:22;7.20;99.90
31991;DHT22;18508;49.386;8.370;2022-11-21T18:10:17;7.00;99.90
31991;DHT22;18508;49.386;8.370;2022-11-21T18:13:15;7.00;99.90
31991;DHT22;18508;49.386;8.370;2022-11-21T18:15:50;7.00;99.90
31991;DHT22;18508;49.386;8.370;2022-11-21T18:26:03;6.90;99.90
31991;DHT22;18508;49.386;8.370;2022-11-21T18:31:35;7.00;99.90
31991;DHT22;18508;49.386;8.370;2022-11-21T18:34:08;7.10;99.90
31991;DHT22;18508;49.386;8.370;2022-11-21T18:36:37;7.00;99.90
31991;DHT22;18508;49.386;8.370;2022-11-21T18:39:06;6.80;99.90
31991;DHT22;18508;49.386;8.370;2022-11-21T18:41:42;7.00;99.90
31991;DHT22;18508;49.386;8.370;2022-11-21T18:44:13;8.10;99.90
31991;DHT22;18508;49.386;8.370;2022-11-21T18:46:52;7.10;99.90
31991;DHT22;18508;49.386;8.370;2022-11-21T18:49:23;7.30;99.90
31991;DHT22;18508;49.386;8.370;2022-11-21T18:54:26;7.00;99.90
31991;DHT22;18508;49.386;8.370;2022-11-21T18:59:24;7.10;99.90
31991;DHT22;18508;49.386;8.370;2022-11-21T19:01:53;7.10;99.90
31991;DHT22;18508;49.386;8.370;2022-11-21T19:04:23;7.10;99.90
31991;DHT22;18508;49.386;8.370;2022-11-21T19:06:55;7.00;99.90
31991;DHT22;18508;49.386;8.370;2022-11-21T19:09:24;7.00;99.90
31991;DHT22;18508;49.386;8.370;2022-11-21T19:11:58;7.00;99.90
31991;DHT22;18508;49.386;8.370;2022-11-21T19:14:29;7.00;99.90
31991;DHT22;18508;49.386;8.370;2022-11-21T19:17:07;7.00;99.90
31991;DHT22;18508;49.386;8.370;2022-11-21T19:19:37;7.00;99.90
31991;DHT22;18508;49.386;8.370;2022-11-21T19:22:06;6.90;99.90
31991;DHT22;18508;49.386;8.370;2022-11-21T19:24:35;7.00;99.90
31991;DHT22;18508;49.386;8.370;2022-11-21T19:27:04;7.00;99.90
31991;DHT22;18508;49.386;8.370;2022-11-21T19:29:33;7.00;99.90
31991;DHT22;18508;49.386;8.370;2022-11-21T19:32:04;7.10;99.90
31991;DHT22;18508;49.386;8.370;2022-11-21T19:34:33;7.00;99.90
31991;DHT22;18508;49.386;8.370;2022-11-21T19:37:04;7.60;99.90
31991;DHT22;18508;49.386;8.370;2022-11-21T19:39:37;7.00;99.90
31991;DHT22;18508;49.386;8.370;2022-11-21T19:42:07;6.90;99.90
31991;DHT22;18508;49.386;8.370;2022-11-21T19:44:38;7.10;99.90
31991;DHT22;18508;49.386;8.370;2022-11-21T19:47:12;7.00;99.90
31991;DHT22;18508;49.386;8.370;2022-11-21T19:52:15;7.20;99.90
31991;DHT22;18508;49.386;8.370;2022-11-21T19:54:53;7.20;99.90
31991;DHT22;18508;49.386;8.370;2022-11-21T19:59:56;7.10;99.90
31991;DHT22;18508;49.386;8.370;2022-11-21T20:02:33;7.10;99.90
31991;DHT22;18508;49.386;8.370;2022-11-21T20:05:04;7.10;99.90
31991;DHT22;18508;49.386;8.370;2022-11-21T20:07:38;7.20;99.90
31991;DHT22;18508;49.386;8.370;2022-11-21T20:10:09;7.20;99.90
31991;DHT22;18508;49.386;8.370;2022-11-21T20:12:41;7.20;99.90
31991;DHT22;18508;49.386;8.370;2022-11-21T20:15:13;7.20;99.90
31991;DHT22;18508;49.386;8.370;2022-11-21T20:18:06;7.20;99.90
31991;DHT22;18508;49.386;8.370;2022-11-21T20:20:43;7.20;99.90
31991;DHT22;18508;49.386;8.370;2022-11-21T20:23:14;7.10;99.90
31991;DHT22;18508;49.386;8.370;2022-11-21T20:25:49;7.10;99.90
31991;DHT22;18508;49.386;8.370;2022-11-21T20:30:53;7.00;99.90
31991;DHT22;18508;49.386;8.370;2022-11-21T20:33:23;7.00;99.90
31991;DHT22;18508;49.386;8.370;2022-11-21T20:35:53;7.00;99.90